ESPA/LLA METAR and TAF weather

Enter ICAO airport designator
Station Type Date Time Source
ESPA METAR 2019/10/16 18:50 UTC NOAA

ESPA 161850Z AUTO 35004KT 8000 2800// -UP OVC006/// M02/M03 Q1019


Station Type Date Time Source
ESPA Decoded METAR 2019/10/16 18:50 UTC NOAA

Lulea / Kallax, Sweden (ESPA) 65-33N 022-08E 34M
Oct 16, 2019 - 02:50 PM EDT / 2019.10.16 1850 UTC
Wind: from the N (350 degrees) at 5 MPH (4 KT):0
Visibility: 4 mile(s):0
Sky conditions: overcast
Weather: light precipitation
Temperature: 28 F (-2 C)
Windchill: 23 F (-5 C):1
Dew Point: 26 F (-3 C)
Relative Humidity: 92%
Pressure (altimeter): 30.09 in. Hg (1019 hPa)
ob: ESPA 161850Z AUTO 35004KT 8000 2800// -UP OVC006/// M02/M03 Q1019
cycle: 19

Station Type Date Time Source
ESPA TAF 2019/02/04 06:27 UTC NOAA

TAF TAF ESPA 040820Z 0406/0418 01010KT 2000 SN VV020
TEMPO 0409/0414 1000 +SN DRSN VV009
BECMG 0414/0416 32010KT 5000 -SN VV030
RMK MIL

Example: see airport list